Time;durP1;ratioP1;P1;durP2;ratioP2;P2;SDS_P1;SDS_P2;PMS_P1;PMS_P2;Temp;Humidity;BMP_temperature;BMP_pressure;BME280_temperature;BME280_humidity;BME280_pressure;Samples;Min_cycle;Max_cycle;Signal;HPM_P1;HPM_P2
2022/08/22 00:01:18;;;;;;;7.10;6.50;;;15.30;99.90;;;;;;5047592;28;20204;-78
2022/08/22 00:03:54;;;;;;;7.43;6.80;;;15.20;99.90;;;;;;5048748;28;20193;-77
2022/08/22 00:06:30;;;;;;;7.70;7.00;;;15.20;99.90;;;;;;5060783;28;20252;-79
2022/08/22 00:09:11;;;;;;;7.83;7.13;;;15.20;99.90;;;;;;5050735;28;20202;-79
2022/08/22 00:11:45;;;;;;;8.33;7.53;;;15.10;99.90;;;;;;5059945;28;20199;-78
2022/08/22 00:14:20;;;;;;;8.13;7.43;;;15.10;99.90;;;;;;5052087;28;20196;-78
2022/08/22 00:16:57;;;;;;;8.17;7.50;;;15.00;99.90;;;;;;5057421;28;20187;-78
2022/08/22 00:19:32;;;;;;;8.00;7.40;;;15.00;99.90;;;;;;5058761;28;20682;-78
2022/08/22 00:22:14;;;;;;;8.30;7.60;;;14.90;99.90;;;;;;5059442;28;20253;-78
2022/08/22 00:24:47;;;;;;;8.13;7.43;;;14.90;99.90;;;;;;5060276;28;20209;-78
2022/08/22 00:27:18;;;;;;;8.03;7.30;;;14.90;99.90;;;;;;5048113;28;20225;-77
2022/08/22 00:29:50;;;;;;;8.20;7.50;;;14.80;99.90;;;;;;5048354;28;20227;-79
2022/08/22 00:32:23;;;;;;;8.37;7.67;;;14.80;99.90;;;;;;5060392;28;20199;-78
2022/08/22 00:34:56;;;;;;;8.00;7.40;;;14.70;99.90;;;;;;5057313;28;20228;-77
2022/08/22 00:37:30;;;;;;;7.73;7.10;;;14.70;99.90;;;;;;5058166;28;20215;-78
2022/08/22 00:40:03;;;;;;;8.37;7.57;;;14.70;99.90;;;;;;5060100;28;20232;-77
2022/08/22 00:43:08;;;;;;;7.93;7.33;;;14.70;99.90;;;;;;5058538;28;20200;-78
2022/08/22 00:46:13;;;;;;;8.50;7.43;;;14.70;99.90;;;;;;5052941;28;20228;-76
2022/08/22 00:49:02;;;;;;;8.40;7.70;;;14.70;99.90;;;;;;5042143;28;20215;-77
2022/08/22 00:51:51;;;;;;;8.77;7.97;;;14.70;99.90;;;;;;5055026;28;20203;-77
2022/08/22 00:54:27;;;;;;;8.30;7.50;;;14.70;99.90;;;;;;5042934;28;20272;-77
2022/08/22 00:57:22;;;;;;;8.23;7.50;;;14.70;99.90;;;;;;5058786;28;20200;-77
2022/08/22 01:00:04;;;;;;;8.00;7.30;;;14.70;99.90;;;;;;5056646;28;20207;-77
2022/08/22 01:02:40;;;;;;;7.87;7.20;;;14.70;99.90;;;;;;5055852;28;20206;-78
2022/08/22 01:05:24;;;;;;;7.87;7.10;;;14.70;99.90;;;;;;5058688;28;20242;-78
2022/08/22 01:08:06;;;;;;;7.97;7.27;;;14.70;99.90;;;;;;5057359;28;20200;-77
2022/08/22 01:10:54;;;;;;;8.33;7.63;;;14.70;99.90;;;;;;5059392;28;20287;-78
2022/08/22 01:13:48;;;;;;;8.50;7.70;;;14.80;99.90;;;;;;5062744;28;20198;-78
2022/08/22 01:16:30;;;;;;;8.50;7.70;;;14.80;99.90;;;;;;5049118;28;20227;-78
2022/08/22 01:19:30;;;;;;;8.60;7.80;;;14.80;99.90;;;;;;5055676;28;20220;-77
2022/08/22 01:22:29;;;;;;;9.10;8.30;;;14.80;99.90;;;;;;5056190;28;20191;-77
2022/08/22 01:26:11;;;;;;;8.83;7.93;;;14.80;99.90;;;;;;5058727;28;20255;-77
2022/08/22 01:29:02;;;;;;;9.57;8.67;;;14.80;99.90;;;;;;5047256;28;20200;-78
2022/08/22 01:32:08;;;;;;;9.10;8.23;;;14.90;99.90;;;;;;5052410;28;20199;-77
2022/08/22 01:34:59;;;;;;;9.33;8.53;;;14.90;99.90;;;;;;5048965;28;20213;-78
2022/08/22 01:37:52;;;;;;;9.00;8.10;;;15.00;99.90;;;;;;5047613;28;20215;-78
2022/08/22 01:41:05;;;;;;;8.70;7.90;;;15.00;99.90;;;;;;5047250;28;20738;-77
2022/08/22 01:43:48;;;;;;;9.60;8.67;;;15.00;99.90;;;;;;5066941;28;20199;-77
2022/08/22 01:46:32;;;;;;;9.43;8.53;;;15.10;99.90;;;;;;5068031;23;20237;-76
2022/08/22 01:49:10;;;;;;;8.50;7.80;;;15.10;99.90;;;;;;5049446;28;20197;-76
2022/08/22 01:51:46;;;;;;;8.80;7.93;;;15.10;99.90;;;;;;5051059;28;20678;-76
2022/08/22 01:54:23;;;;;;;8.20;7.50;;;15.10;99.90;;;;;;5041198;28;20669;-76
2022/08/22 01:56:50;;;;;;;8.00;7.40;;;15.10;99.90;;;;;;5024669;28;20271;-76
2022/08/22 01:59:23;;;;;;;8.30;7.63;;;15.10;99.90;;;;;;5026273;28;20218;-76
2022/08/22 02:01:58;;;;;;;7.70;7.10;;;15.10;99.90;;;;;;5027556;28;20218;-76
2022/08/22 02:04:37;;;;;;;8.70;7.93;;;15.00;99.90;;;;;;5026110;28;20650;-76
2022/08/22 02:07:13;;;;;;;8.93;8.20;;;15.00;99.90;;;;;;5021409;28;20203;-76
2022/08/22 02:09:48;;;;;;;8.90;8.10;;;15.00;99.90;;;;;;5028207;28;20195;-76
2022/08/22 02:12:26;;;;;;;9.00;8.10;;;14.90;99.90;;;;;;5024885;28;20205;-76
2022/08/22 02:15:04;;;;;;;9.40;8.60;;;14.90;99.90;;;;;;5023550;28;20228;-76
2022/08/22 02:17:34;;;;;;;8.93;8.23;;;14.90;99.90;;;;;;5024099;28;20710;-76
2022/08/22 02:20:07;;;;;;;8.63;7.93;;;14.80;99.90;;;;;;5023863;28;20277;-76
2022/08/22 02:22:41;;;;;;;8.33;7.63;;;14.80;99.90;;;;;;5024343;28;20193;-76
2022/08/22 02:25:14;;;;;;;9.17;8.20;;;14.70;99.90;;;;;;5027951;28;20216;-76
2022/08/22 02:27:50;;;;;;;9.20;8.50;;;14.70;99.90;;;;;;5020378;28;20193;-76
2022/08/22 02:30:19;;;;;;;9.03;8.23;;;14.70;99.90;;;;;;5024741;28;20222;-76
2022/08/22 02:32:57;;;;;;;8.93;8.13;;;14.50;99.90;;;;;;5028192;28;20690;-76
2022/08/22 02:35:30;;;;;;;9.03;8.13;;;14.50;99.90;;;;;;5024178;28;20222;-76
2022/08/22 02:38:19;;;;;;;10.10;8.90;;;14.50;99.90;;;;;;5022199;28;20692;-76
2022/08/22 02:40:53;;;;;;;9.23;8.40;;;14.40;99.90;;;;;;5027302;28;20203;-76
2022/08/22 02:43:25;;;;;;;9.53;8.83;;;14.30;99.90;;;;;;5018203;28;20211;-76
2022/08/22 02:45:59;;;;;;;9.07;8.37;;;14.30;99.90;;;;;;5023340;28;20224;-76
2022/08/22 02:48:36;;;;;;;9.43;8.63;;;14.30;99.90;;;;;;5023565;28;20189;-76
2022/08/22 02:51:10;;;;;;;9.60;8.80;;;14.20;99.90;;;;;;5022242;28;20200;-76
2022/08/22 02:53:48;;;;;;;9.20;8.50;;;14.20;99.90;;;;;;5026491;28;20215;-76
2022/08/22 02:56:20;;;;;;;9.37;8.57;;;14.10;99.90;;;;;;5030604;28;20230;-78
2022/08/22 02:58:54;;;;;;;8.83;8.10;;;14.10;99.90;;;;;;5027241;28;20216;-77
2022/08/22 03:01:33;;;;;;;9.00;8.20;;;14.00;99.90;;;;;;5027560;28;20748;-77
2022/08/22 03:04:25;;;;;;;9.37;8.57;;;13.90;99.90;;;;;;5030661;28;20206;-77
2022/08/22 03:07:11;;;;;;;9.00;8.30;;;13.90;99.90;;;;;;5029654;28;20273;-77
2022/08/22 03:09:45;;;;;;;9.30;8.50;;;13.80;99.90;;;;;;5030464;28;20196;-77
2022/08/22 03:12:20;;;;;;;9.80;9.00;;;13.80;99.90;;;;;;5034020;28;20196;-77
2022/08/22 03:14:54;;;;;;;9.77;9.07;;;13.80;99.90;;;;;;5030050;28;20204;-78
2022/08/22 03:17:27;;;;;;;10.13;9.33;;;13.70;99.90;;;;;;5034100;28;20631;-77
2022/08/22 03:19:59;;;;;;;9.80;9.00;;;13.70;99.90;;;;;;5033547;28;20210;-78
2022/08/22 03:22:36;;;;;;;10.20;9.40;;;13.70;99.90;;;;;;5030907;28;20292;-77
2022/08/22 03:25:12;;;;;;;9.97;9.17;;;13.70;99.90;;;;;;5030125;28;20289;-77
2022/08/22 03:27:43;;;;;;;10.27;9.40;;;13.60;99.90;;;;;;5049511;28;20271;-78
2022/08/22 03:30:21;;;;;;;9.70;9.00;;;13.60;99.90;;;;;;5031944;28;20721;-76
2022/08/22 03:32:51;;;;;;;9.97;9.27;;;13.50;99.90;;;;;;5032058;28;20249;-77
2022/08/22 03:35:38;;;;;;;10.00;9.20;;;13.50;99.90;;;;;;5033087;28;20224;-77
2022/08/22 03:38:16;;;;;;;9.93;9.13;;;13.50;99.90;;;;;;5028938;28;20289;-77
2022/08/22 03:41:09;;;;;;;8.63;7.87;;;13.50;99.90;;;;;;5034732;28;20191;-77
2022/08/22 03:43:52;;;;;;;8.53;7.83;;;13.50;99.90;;;;;;5033015;28;20202;-77
2022/08/22 03:46:41;;;;;;;9.07;7.90;;;13.40;99.90;;;;;;5033247;28;20235;-77
2022/08/22 03:49:40;;;;;;;11.47;10.43;;;13.30;99.90;;;;;;5008625;28;20615;-79
2022/08/22 03:52:27;;;;;;;10.63;9.83;;;13.30;99.90;;;;;;5028142;28;20285;-79
2022/08/22 03:55:20;;;;;;;10.30;9.50;;;13.30;99.90;;;;;;5028906;28;20708;-79
2022/08/22 03:58:34;;;;;;;10.63;9.73;;;13.20;99.90;;;;;;5032745;28;20744;-78
2022/08/22 04:01:27;;;;;;;10.60;9.80;;;13.20;99.90;;;;;;5035549;28;20192;-82
2022/08/22 04:04:31;;;;;;;10.50;9.70;;;13.20;99.90;;;;;;5033519;28;20195;-79
2022/08/22 04:07:25;;;;;;;11.27;10.33;;;13.20;99.90;;;;;;5030788;28;20253;-82
2022/08/22 04:10:09;;;;;;;11.20;10.07;;;13.20;99.90;;;;;;5049650;28;20262;-78
2022/08/22 04:13:02;;;;;;;11.60;10.60;;;13.20;99.90;;;;;;5034259;28;20673;-77
2022/08/22 04:16:02;;;;;;;12.00;11.10;;;13.30;99.90;;;;;;5027397;28;20671;-77
2022/08/22 04:19:03;;;;;;;11.77;10.97;;;13.30;99.90;;;;;;5025811;28;20228;-78
2022/08/22 04:22:07;;;;;;;12.10;10.47;;;13.30;99.90;;;;;;5010511;28;20222;-77
2022/08/22 04:24:51;;;;;;;12.13;11.03;;;13.30;99.90;;;;;;5031229;28;20612;-78
2022/08/22 04:27:23;;;;;;;10.47;9.57;;;13.20;99.90;;;;;;5029210;28;20311;-78
2022/08/22 04:29:57;;;;;;;11.20;10.30;;;13.20;99.90;;;;;;5031541;28;20206;-78
2022/08/22 04:32:35;;;;;;;11.57;10.57;;;13.20;99.90;;;;;;5029164;28;20204;-78
2022/08/22 04:35:09;;;;;;;10.63;9.70;;;13.10;99.90;;;;;;5028301;28;20305;-78
2022/08/22 04:37:44;;;;;;;9.83;9.00;;;13.20;99.90;;;;;;5030834;28;20196;-78
2022/08/22 04:40:20;;;;;;;11.20;10.20;;;13.20;99.90;;;;;;5025989;28;20226;-78
2022/08/22 04:42:52;;;;;;;11.77;10.80;;;13.30;99.90;;;;;;5025404;28;20634;-79
2022/08/22 04:45:23;;;;;;;12.40;11.30;;;13.30;99.90;;;;;;5033873;28;20653;-78
2022/08/22 04:47:56;;;;;;;13.17;11.73;;;13.40;99.90;;;;;;5033812;28;20745;-78
2022/08/22 04:50:28;;;;;;;11.10;9.77;;;13.40;99.90;;;;;;5028905;28;20673;-77
2022/08/22 04:53:17;;;;;;;12.20;9.60;;;13.50;99.90;;;;;;5033056;28;20577;-78
2022/08/22 04:55:54;;;;;;;9.93;8.93;;;13.60;99.90;;;;;;5023310;28;20213;-78
2022/08/22 04:58:38;;;;;;;10.83;9.73;;;13.60;99.90;;;;;;5026152;28;20232;-78
2022/08/22 05:01:13;;;;;;;11.47;10.37;;;13.60;99.90;;;;;;5031427;28;20192;-78
2022/08/22 05:03:49;;;;;;;12.07;10.87;;;13.60;99.90;;;;;;5029292;28;20207;-79
2022/08/22 05:06:19;;;;;;;11.17;10.17;;;13.60;99.90;;;;;;5027017;28;20222;-78
2022/08/22 05:08:49;;;;;;;11.00;10.10;;;13.60;99.90;;;;;;5024939;28;20200;-78
2022/08/22 05:11:19;;;;;;;10.93;10.00;;;13.70;99.90;;;;;;5025284;28;20209;-78
2022/08/22 05:13:49;;;;;;;11.07;10.10;;;13.60;99.90;;;;;;5031494;28;20199;-78
2022/08/22 05:16:21;;;;;;;10.60;9.80;;;13.70;99.90;;;;;;5025516;28;20212;-78
2022/08/22 05:18:52;;;;;;;10.77;9.93;;;13.70;99.90;;;;;;5025728;28;20212;-78
2022/08/22 05:21:23;;;;;;;11.03;9.87;;;13.80;99.90;;;;;;5034413;28;20623;-78
2022/08/22 05:23:57;;;;;;;10.50;9.50;;;13.80;99.90;;;;;;5036994;28;20184;-78
2022/08/22 05:26:27;;;;;;;10.23;9.43;;;13.90;99.90;;;;;;5027437;28;20220;-77
2022/08/22 05:29:00;;;;;;;10.87;9.97;;;13.90;99.90;;;;;;5027756;28;20199;-78
2022/08/22 05:31:29;;;;;;;11.47;10.57;;;14.10;99.90;;;;;;5032666;28;20241;-78
2022/08/22 05:34:03;;;;;;;11.87;10.87;;;14.20;99.90;;;;;;5024202;28;20619;-78
2022/08/22 05:36:35;;;;;;;12.17;10.97;;;14.30;99.90;;;;;;5024748;28;20208;-78
2022/08/22 05:39:07;;;;;;;10.83;10.00;;;14.40;99.90;;;;;;5024525;28;20300;-78
2022/08/22 05:41:38;;;;;;;11.60;10.80;;;14.60;99.90;;;;;;5026152;28;20197;-78
2022/08/22 05:44:07;;;;;;;10.73;9.93;;;14.80;99.90;;;;;;5030474;28;20261;-78
2022/08/22 05:46:41;;;;;;;11.30;10.50;;;15.00;99.90;;;;;;5026471;28;20284;-78
2022/08/22 05:49:20;;;;;;;10.60;9.57;;;15.20;99.90;;;;;;5030808;28;20202;-78
2022/08/22 05:51:55;;;;;;;9.93;9.17;;;15.30;99.90;;;;;;5030229;28;20239;-78
2022/08/22 05:54:29;;;;;;;8.83;8.03;;;15.50;99.90;;;;;;5026932;28;20622;-78
2022/08/22 05:57:05;;;;;;;10.10;9.40;;;15.70;99.90;;;;;;5029337;28;20340;-78
2022/08/22 05:59:35;;;;;;;6.83;5.37;;;15.70;99.90;;;;;;5027501;28;20285;-79
2022/08/22 06:02:06;;;;;;;6.87;5.00;;;15.70;99.90;;;;;;5025586;28;20199;-78
2022/08/22 06:04:45;;;;;;;6.27;5.27;;;15.80;99.90;;;;;;5025287;28;20664;-77
2022/08/22 06:07:20;;;;;;;7.10;5.33;;;15.80;99.90;;;;;;5024666;28;20206;-78
2022/08/22 06:10:20;;;;;;;6.43;4.97;;;15.80;99.90;;;;;;5025993;28;20184;-78
2022/08/22 06:12:54;;;;;;;7.43;5.17;;;15.80;99.90;;;;;;5022918;28;20673;-79
2022/08/22 06:15:26;;;;;;;11.97;10.77;;;15.80;99.90;;;;;;5025403;28;20223;-78
2022/08/22 06:17:57;;;;;;;6.03;4.53;;;15.80;99.90;;;;;;5025368;28;20205;-78
2022/08/22 06:20:39;;;;;;;6.10;4.97;;;15.80;99.90;;;;;;5027263;28;20220;-78
2022/08/22 06:23:07;;;;;;;6.23;4.70;;;15.80;99.90;;;;;;5024500;28;20193;-79
2022/08/22 06:25:37;;;;;;;5.07;4.53;;;16.00;99.90;;;;;;5026046;28;20212;-78
2022/08/22 06:28:08;;;;;;;4.67;4.17;;;16.10;99.90;;;;;;5030136;28;20210;-78
2022/08/22 06:30:38;;;;;;;4.73;4.27;;;16.30;99.90;;;;;;5020809;28;20235;-78
2022/08/22 06:33:09;;;;;;;5.93;4.57;;;16.50;99.90;;;;;;5047120;28;20204;-78
2022/08/22 06:38:32;;;;;;;4.63;4.20;;;16.90;99.90;;;;;;5025915;28;20251;-78
2022/08/22 06:41:02;;;;;;;6.47;5.10;;;16.90;99.90;;;;;;5028596;28;20223;-78
2022/08/22 06:43:36;;;;;;;5.47;4.57;;;17.00;99.90;;;;;;5023253;28;20197;-78
2022/08/22 06:46:04;;;;;;;6.23;5.47;;;17.10;99.90;;;;;;5030975;28;20227;-78
2022/08/22 06:48:33;;;;;;;8.17;7.47;;;17.10;99.90;;;;;;5025262;28;20223;-78
2022/08/22 06:51:01;;;;;;;8.00;7.30;;;17.20;99.90;;;;;;5029411;28;20685;-78
2022/08/22 06:53:35;;;;;;;9.13;8.43;;;17.30;99.90;;;;;;5025307;28;20232;-78
2022/08/22 06:56:04;;;;;;;10.80;9.90;;;17.40;99.90;;;;;;5029286;28;20294;-78
2022/08/22 06:58:37;;;;;;;5.87;4.67;;;17.50;99.90;;;;;;5027708;28;20211;-78
2022/08/22 07:01:08;;;;;;;9.97;9.27;;;17.60;99.90;;;;;;5023428;28;20266;-78
2022/08/22 07:03:38;;;;;;;4.93;4.13;;;17.80;99.90;;;;;;5017829;28;20213;-78
2022/08/22 07:06:06;;;;;;;9.50;8.80;;;17.90;99.90;;;;;;5023931;28;20279;-78
2022/08/22 07:08:35;;;;;;;10.30;9.50;;;18.00;99.90;;;;;;5026768;28;20254;-79
2022/08/22 07:11:10;;;;;;;7.43;4.77;;;18.10;99.90;;;;;;5024567;28;20196;-78
2022/08/22 07:13:41;;;;;;;6.00;5.03;;;18.20;99.90;;;;;;5021087;28;20208;-78
2022/08/22 07:16:09;;;;;;;11.83;10.57;;;18.30;99.90;;;;;;5029276;28;20624;-78
2022/08/22 07:18:47;;;;;;;10.80;10.00;;;18.50;99.90;;;;;;5020135;28;20207;-79
2022/08/22 07:21:25;;;;;;;6.60;6.07;;;18.70;99.90;;;;;;5025441;28;20200;-79
2022/08/22 07:23:53;;;;;;;9.93;9.13;;;18.80;99.90;;;;;;5021893;28;20201;-78
2022/08/22 07:26:29;;;;;;;10.90;10.10;;;19.00;99.90;;;;;;5024221;28;20279;-79
2022/08/22 07:29:00;;;;;;;6.70;5.33;;;19.30;99.90;;;;;;5025198;28;20315;-79
2022/08/22 07:31:37;;;;;;;9.93;9.13;;;19.60;99.90;;;;;;5024783;28;20610;-79
2022/08/22 07:34:24;;;;;;;4.90;3.90;;;20.00;99.90;;;;;;5023261;28;20214;-79
2022/08/22 07:36:59;;;;;;;7.00;4.60;;;20.50;99.90;;;;;;5023541;28;20229;-79
2022/08/22 07:39:30;;;;;;;5.87;5.27;;;21.00;99.90;;;;;;5022199;28;20296;-79
2022/08/22 07:42:06;;;;;;;10.43;9.43;;;21.40;99.90;;;;;;5028293;28;20202;-79
2022/08/22 07:44:37;;;;;;;5.60;4.40;;;21.90;99.90;;;;;;5020021;28;20201;-79
2022/08/22 07:47:09;;;;;;;5.90;3.83;;;22.50;99.90;;;;;;5072813;22;21144;-82
2022/08/22 07:50:02;;;;;;;5.00;4.20;;;22.80;99.90;;;;;;5052634;28;20199;-82
2022/08/22 07:52:37;;;;;;;6.97;6.27;;;23.30;99.90;;;;;;5043980;28;20211;-82
2022/08/22 07:55:14;;;;;;;5.23;4.80;;;23.70;99.90;;;;;;5052145;28;20203;-82
2022/08/22 07:57:45;;;;;;;6.77;5.20;;;24.40;99.90;;;;;;5059942;28;20199;-82
2022/08/22 08:00:17;;;;;;;9.23;8.47;;;24.80;99.90;;;;;;5058463;28;20787;-82
2022/08/22 08:02:48;;;;;;;8.20;7.40;;;25.10;99.90;;;;;;5062796;28;20222;-82
2022/08/22 08:05:16;;;;;;;9.67;8.63;;;25.10;99.90;;;;;;5053535;28;20208;-82
2022/08/22 08:07:46;;;;;;;7.47;6.00;;;25.40;99.90;;;;;;5053760;28;20205;-82
2022/08/22 08:10:17;;;;;;;7.93;7.23;;;25.50;99.90;;;;;;5043905;28;20191;-80
2022/08/22 08:12:47;;;;;;;7.93;7.23;;;25.70;99.90;;;;;;5063594;28;20205;-79
2022/08/22 08:15:18;;;;;;;8.27;6.97;;;25.70;99.90;;;;;;5048738;28;20690;-80
2022/08/22 08:17:48;;;;;;;9.17;8.27;;;25.80;99.90;;;;;;5054632;28;20192;-80
2022/08/22 08:20:19;;;;;;;5.83;3.97;;;26.00;99.90;;;;;;5061635;28;20208;-79
2022/08/22 08:22:49;;;;;;;5.87;4.10;;;26.10;99.90;;;;;;5060851;28;20659;-79
2022/08/22 08:25:23;;;;;;;6.03;3.60;;;26.40;99.90;;;;;;5052982;28;20204;-80
2022/08/22 08:30:39;;;;;;;4.83;4.13;;;26.40;99.90;;;;;;5061545;28;20187;-80
2022/08/22 08:33:08;;;;;;;5.20;3.87;;;26.50;99.90;;;;;;5061513;28;20206;-80
2022/08/22 08:35:40;;;;;;;6.33;4.00;;;26.50;99.90;;;;;;5057231;28;20222;-79
2022/08/22 08:38:14;;;;;;;5.47;3.67;;;26.70;99.90;;;;;;5053677;28;20198;-79
2022/08/22 08:41:00;;;;;;;4.67;4.10;;;26.90;99.90;;;;;;5064923;28;20223;-80
2022/08/22 08:43:39;;;;;;;7.03;4.07;;;26.70;99.90;;;;;;5052111;28;20198;-80
2022/08/22 08:46:42;;;;;;;5.37;4.20;;;26.90;99.90;;;;;;5060814;28;20296;-82
2022/08/22 08:49:23;;;;;;;6.43;4.57;;;26.70;99.90;;;;;;5064318;28;20198;-80
2022/08/22 08:52:10;;;;;;;5.87;4.00;;;26.50;99.90;;;;;;5060387;28;20197;-82
2022/08/22 08:54:56;;;;;;;4.90;3.90;;;26.50;99.90;;;;;;5062862;28;20191;-82
2022/08/22 08:57:39;;;;;;;5.77;3.93;;;26.60;99.90;;;;;;5052706;28;20226;-82
2022/08/22 09:00:11;;;;;;;5.27;4.73;;;26.80;99.90;;;;;;5055244;28;20264;-82
2022/08/22 09:02:56;;;;;;;8.30;7.60;;;26.70;99.90;;;;;;5055841;28;20204;-82
2022/08/22 09:05:51;;;;;;;6.03;5.43;;;26.80;99.90;;;;;;5051206;28;20347;-81
2022/08/22 09:09:00;;;;;;;6.37;5.20;;;27.20;99.90;;;;;;5057097;28;20201;-82
2022/08/22 09:12:05;;;;;;;5.20;3.63;;;27.00;99.90;;;;;;5055936;28;20198;-81
2022/08/22 09:14:54;;;;;;;5.17;4.13;;;27.30;99.90;;;;;;5052258;28;20225;-82
2022/08/22 09:17:39;;;;;;;5.93;4.57;;;27.50;99.90;;;;;;5050064;28;20768;-81
2022/08/22 09:20:45;;;;;;;5.53;3.80;;;27.40;99.90;;;;;;5052563;28;20628;-82
2022/08/22 09:23:54;;;;;;;8.63;7.90;;;27.70;99.90;;;;;;5042874;28;20206;-81
2022/08/22 09:26:29;;;;;;;9.00;8.27;;;28.30;99.90;;;;;;5054708;28;20226;-82
2022/08/22 09:29:06;;;;;;;6.07;5.37;;;28.50;99.90;;;;;;5061123;28;20216;-82
2022/08/22 09:31:40;;;;;;;8.97;8.27;;;28.70;99.50;;;;;;5061331;28;20198;-82
2022/08/22 09:34:12;;;;;;;7.97;7.20;;;28.50;99.90;;;;;;5054766;28;20194;-82
2022/08/22 09:36:57;;;;;;;8.87;8.17;;;28.40;99.40;;;;;;5057704;28;20281;-82
2022/08/22 09:39:33;;;;;;;6.57;5.50;;;27.80;99.20;;;;;;5052462;28;20211;-82
2022/08/22 09:42:07;;;;;;;7.70;6.30;;;27.80;99.90;;;;;;5061347;28;20191;-82
2022/08/22 09:47:41;;;;;;;8.17;7.40;;;28.10;99.90;;;;;;5059109;28;20203;-82
2022/08/22 09:50:12;;;;;;;8.87;8.07;;;28.20;99.90;;;;;;5069921;28;20254;-82
2022/08/22 09:52:53;;;;;;;8.07;7.00;;;28.30;99.90;;;;;;5062921;28;20261;-82
2022/08/22 09:55:38;;;;;;;5.17;3.87;;;28.10;99.00;;;;;;5060092;28;20305;-82
2022/08/22 09:58:13;;;;;;;5.60;5.10;;;28.30;98.90;;;;;;5063577;28;20260;-79
2022/08/22 10:00:46;;;;;;;5.40;3.90;;;28.50;99.90;;;;;;5061832;28;20277;-81
2022/08/22 10:03:19;;;;;;;8.10;7.50;;;28.60;99.40;;;;;;5055617;28;20266;-79
2022/08/22 10:05:53;;;;;;;4.67;4.27;;;28.70;99.40;;;;;;5061647;28;20797;-80
2022/08/22 10:08:34;;;;;;;5.27;3.97;;;29.00;99.50;;;;;;5058596;28;20199;-80
2022/08/22 10:11:13;;;;;;;5.23;4.77;;;29.10;99.20;;;;;;5059655;28;20194;-80
2022/08/22 10:13:47;;;;;;;4.97;3.50;;;29.40;98.90;;;;;;5055189;28;20206;-80
2022/08/22 10:16:20;;;;;;;5.27;4.07;;;29.40;99.20;;;;;;5056515;28;20227;-80
2022/08/22 10:18:55;;;;;;;9.07;8.30;;;29.30;95.20;;;;;;5063108;28;20198;-80
2022/08/22 10:21:30;;;;;;;4.90;4.03;;;28.90;96.00;;;;;;5058721;28;20221;-79
2022/08/22 10:24:03;;;;;;;5.27;3.50;;;28.80;98.20;;;;;;5055045;28;20191;-80
2022/08/22 10:26:33;;;;;;;5.57;3.80;;;28.90;98.70;;;;;;5055266;28;20223;-81
2022/08/22 10:29:11;;;;;;;4.20;3.80;;;28.90;97.10;;;;;;5061842;28;20196;-82
2022/08/22 10:31:43;;;;;;;4.80;4.13;;;28.90;97.00;;;;;;5059297;28;20195;-82
2022/08/22 10:34:16;;;;;;;6.70;6.20;;;28.50;95.80;;;;;;5054490;28;20191;-82
2022/08/22 10:36:57;;;;;;;4.60;3.60;;;28.40;97.80;;;;;;5060188;28;20222;-81
2022/08/22 10:39:30;;;;;;;5.40;3.63;;;28.30;97.90;;;;;;5057516;28;20274;-82
2022/08/22 10:42:25;;;;;;;3.97;3.50;;;28.20;98.30;;;;;;5058537;28;20218;-82
2022/08/22 10:45:03;;;;;;;7.33;6.77;;;28.20;97.40;;;;;;5055909;28;20743;-81
2022/08/22 10:47:37;;;;;;;6.77;6.27;;;28.00;96.60;;;;;;5060560;28;20259;-81
2022/08/22 10:50:12;;;;;;;4.47;3.70;;;27.90;97.00;;;;;;5055345;28;20640;-82
2022/08/22 10:52:45;;;;;;;5.33;4.60;;;27.70;97.10;;;;;;5055643;28;20192;-81
2022/08/22 10:55:16;;;;;;;4.43;3.70;;;27.50;95.90;;;;;;5052057;28;20211;-81
2022/08/22 10:58:04;;;;;;;3.63;3.30;;;27.40;94.70;;;;;;5059924;28;20195;-79
2022/08/22 11:00:42;;;;;;;4.83;3.30;;;27.30;96.50;;;;;;5042891;28;20230;-81
2022/08/22 11:03:15;;;;;;;3.60;3.30;;;27.50;96.80;;;;;;5040383;28;20207;-81
2022/08/22 11:05:45;;;;;;;3.40;3.10;;;27.50;95.30;;;;;;5056216;28;20215;-83
2022/08/22 11:08:54;;;;;;;3.87;3.10;;;27.70;96.60;;;;;;5046317;28;20260;-83
2022/08/22 11:11:39;;;;;;;5.23;4.10;;;27.80;95.40;;;;;;5044868;28;20214;-83
2022/08/22 11:14:38;;;;;;;4.10;3.50;;;27.70;95.90;;;;;;5058705;28;20209;-80
2022/08/22 11:17:21;;;;;;;6.93;4.17;;;27.40;95.30;;;;;;5064922;28;20206;-81
2022/08/22 11:20:04;;;;;;;6.77;6.17;;;27.40;95.90;;;;;;5058452;28;20257;-82
2022/08/22 11:22:43;;;;;;;5.67;5.13;;;27.80;96.10;;;;;;5055626;28;20199;-80
2022/08/22 11:25:20;;;;;;;3.70;3.20;;;27.50;95.60;;;;;;5051934;28;20708;-80
2022/08/22 11:28:05;;;;;;;3.93;3.40;;;27.30;93.60;;;;;;5054184;28;20194;-80
2022/08/22 11:30:35;;;;;;;6.87;6.27;;;26.90;92.30;;;;;;5045990;28;20196;-79
2022/08/22 11:33:26;;;;;;;6.43;4.17;;;26.60;94.50;;;;;;5048316;28;20204;-77
2022/08/22 11:36:00;;;;;;;7.40;6.40;;;26.50;93.80;;;;;;5058590;28;20671;-80
2022/08/22 11:38:37;;;;;;;4.23;3.10;;;26.20;94.30;;;;;;5059759;28;20256;-80
2022/08/22 11:41:11;;;;;;;6.03;5.53;;;26.20;93.60;;;;;;5059044;28;20535;-79
2022/08/22 11:43:48;;;;;;;7.70;7.10;;;26.20;96.00;;;;;;5068438;28;20228;-80
2022/08/22 11:46:27;;;;;;;7.10;6.60;;;26.20;94.70;;;;;;5053825;28;20223;-80
2022/08/22 11:49:18;;;;;;;7.53;6.93;;;26.60;95.00;;;;;;5053647;28;20207;-80
2022/08/22 11:52:20;;;;;;;3.80;3.30;;;27.00;93.80;;;;;;5056498;28;20196;-79
2022/08/22 11:55:25;;;;;;;6.33;5.83;;;27.10;92.90;;;;;;5055914;28;20251;-80
2022/08/22 11:57:56;;;;;;;3.87;3.47;;;27.20;93.30;;;;;;4983691;28;20255;-80
2022/08/22 12:00:34;;;;;;;4.03;3.57;;;27.20;90.70;;;;;;4999483;28;20208;-80
2022/08/22 12:03:26;;;;;;;6.03;5.43;;;26.90;92.70;;;;;;5035043;28;20214;-80
2022/08/22 12:06:00;;;;;;;5.50;5.10;;;26.90;93.20;;;;;;5055100;28;20223;-79
2022/08/22 12:09:02;;;;;;;6.90;6.27;;;26.90;93.50;;;;;;5061269;28;20624;-79
2022/08/22 12:11:40;;;;;;;7.60;7.00;;;26.80;94.10;;;;;;5043398;28;20667;-79
2022/08/22 12:14:16;;;;;;;7.27;6.67;;;27.10;95.00;;;;;;5062043;28;20247;-80
2022/08/22 12:16:54;;;;;;;7.60;6.90;;;27.20;93.60;;;;;;5058450;28;20271;-79
2022/08/22 12:19:28;;;;;;;7.67;6.90;;;27.30;94.60;;;;;;5056126;28;20198;-80
2022/08/22 12:22:36;;;;;;;6.10;5.60;;;27.10;94.30;;;;;;5057072;28;20264;-79
2022/08/22 12:25:12;;;;;;;4.20;3.60;;;27.30;95.00;;;;;;5064458;28;20252;-79
2022/08/22 12:28:01;;;;;;;3.70;3.30;;;27.30;95.50;;;;;;5051198;28;20251;-80
2022/08/22 12:30:34;;;;;;;4.47;3.73;;;27.30;94.20;;;;;;5056790;28;20211;-79
2022/08/22 12:33:20;;;;;;;6.00;3.80;;;27.30;94.10;;;;;;5058265;28;20196;-79
2022/08/22 12:35:57;;;;;;;4.87;3.73;;;27.20;94.50;;;;;;5061625;28;20219;-80
2022/08/22 12:38:35;;;;;;;5.63;3.50;;;27.30;94.90;;;;;;5059846;28;20263;-79
2022/08/22 12:41:34;;;;;;;5.73;3.43;;;27.40;95.20;;;;;;5052844;28;20219;-81
2022/08/22 12:44:22;;;;;;;5.33;4.67;;;27.30;93.90;;;;;;5051067;28;20203;-81
2022/08/22 12:47:06;;;;;;;7.10;6.50;;;27.30;93.00;;;;;;5065670;28;20276;-81
2022/08/22 12:49:46;;;;;;;7.47;6.87;;;27.30;93.60;;;;;;5054850;28;20196;-81
2022/08/22 12:52:28;;;;;;;8.37;5.73;;;27.20;93.60;;;;;;5051249;28;20290;-81
2022/08/22 12:55:17;;;;;;;4.63;3.73;;;27.00;93.40;;;;;;5055704;28;20200;-80
2022/08/22 12:57:51;;;;;;;5.87;3.63;;;26.80;93.70;;;;;;5053736;28;20265;-81
2022/08/22 13:00:30;;;;;;;4.70;4.30;;;26.60;93.00;;;;;;5064628;28;20202;-81
2022/08/22 13:03:01;;;;;;;6.23;4.63;;;26.50;93.40;;;;;;5058482;28;20242;-80
2022/08/22 13:05:30;;;;;;;5.00;3.60;;;26.40;91.80;;;;;;5058370;28;20289;-82
2022/08/22 13:08:00;;;;;;;5.47;4.80;;;26.30;92.40;;;;;;5064356;28;20268;-82
2022/08/22 13:10:42;;;;;;;5.93;3.60;;;26.30;93.00;;;;;;5054122;28;20254;-81
2022/08/22 13:13:14;;;;;;;7.20;6.60;;;26.40;93.10;;;;;;5068156;28;20249;-81
2022/08/22 13:15:46;;;;;;;6.30;5.80;;;26.50;94.10;;;;;;5051618;28;20323;-82
2022/08/22 13:18:17;;;;;;;7.33;6.80;;;26.60;94.00;;;;;;5062627;28;20205;-82
2022/08/22 13:20:47;;;;;;;7.70;7.10;;;26.70;94.20;;;;;;5062171;28;20267;-82
2022/08/22 13:23:18;;;;;;;7.90;7.20;;;26.80;93.90;;;;;;5049188;28;20212;-80
2022/08/22 13:26:08;;;;;;;7.87;7.20;;;26.80;94.10;;;;;;5060255;28;20649;-82
2022/08/22 13:28:41;;;;;;;8.30;7.47;;;26.70;91.10;;;;;;5063901;28;20194;-81
2022/08/22 13:31:22;;;;;;;7.63;7.03;;;26.90;92.50;;;;;;5065318;28;20251;-82
2022/08/22 13:33:51;;;;;;;7.80;7.20;;;27.00;93.40;;;;;;5061987;28;20199;-81
2022/08/22 13:36:20;;;;;;;7.30;6.70;;;27.00;92.20;;;;;;5064920;28;20280;-81
2022/08/22 13:38:56;;;;;;;7.20;6.70;;;27.00;92.80;;;;;;5061349;28;20625;-81
2022/08/22 13:41:28;;;;;;;7.40;6.80;;;27.10;93.60;;;;;;5057935;28;20226;-80
2022/08/22 13:44:16;;;;;;;7.23;6.73;;;27.00;92.40;;;;;;5052269;28;20195;-82
2022/08/22 13:46:46;;;;;;;7.20;6.60;;;26.90;93.90;;;;;;5064286;22;20277;-78
2022/08/22 13:49:18;;;;;;;7.50;6.90;;;26.80;95.90;;;;;;5037870;28;20207;-78
2022/08/22 13:51:50;;;;;;;7.83;7.10;;;26.80;95.70;;;;;;5036058;28;20206;-78